sensor_id;sensor_type;location;lat;lon;timestamp;P1;durP1;ratioP1;P2;durP2;ratioP2
5827;SDS011;42583;50.240;8.444;2023-10-08T00:12:00;13.87;;;3.20;;
5827;SDS011;42583;50.240;8.444;2023-10-08T00:27:02;11.40;;;2.83;;
5827;SDS011;42583;50.240;8.444;2023-10-08T00:57:13;9.00;;;2.83;;
5827;SDS011;42583;50.240;8.444;2023-10-08T01:12:21;8.13;;;2.65;;
5827;SDS011;42583;50.240;8.444;2023-10-08T01:27:24;10.67;;;2.90;;
5827;SDS011;42583;50.240;8.444;2023-10-08T01:42:29;11.10;;;3.00;;
5827;SDS011;42583;50.240;8.444;2023-10-08T01:57:33;11.57;;;3.03;;
5827;SDS011;42583;50.240;8.444;2023-10-08T02:12:33;8.75;;;3.25;;
5827;SDS011;42583;50.240;8.444;2023-10-08T02:27:35;11.80;;;3.28;;
5827;SDS011;42583;50.240;8.444;2023-10-08T02:42:37;9.95;;;3.00;;
5827;SDS011;42583;50.240;8.444;2023-10-08T02:57:38;8.90;;;3.10;;
5827;SDS011;42583;50.240;8.444;2023-10-08T03:12:44;11.88;;;3.17;;
5827;SDS011;42583;50.240;8.444;2023-10-08T03:27:49;9.15;;;2.78;;
5827;SDS011;42583;50.240;8.444;2023-10-08T03:42:51;7.53;;;2.80;;
5827;SDS011;42583;50.240;8.444;2023-10-08T03:57:55;9.07;;;3.17;;
5827;SDS011;42583;50.240;8.444;2023-10-08T04:13:04;11.20;;;3.10;;
5827;SDS011;42583;50.240;8.444;2023-10-08T04:28:08;9.27;;;3.20;;
5827;SDS011;42583;50.240;8.444;2023-10-08T04:43:17;12.32;;;3.22;;
5827;SDS011;42583;50.240;8.444;2023-10-08T04:58:27;13.68;;;3.00;;
5827;SDS011;42583;50.240;8.444;2023-10-08T05:13:33;10.18;;;3.28;;
5827;SDS011;42583;50.240;8.444;2023-10-08T05:28:45;11.25;;;3.38;;
5827;SDS011;42583;50.240;8.444;2023-10-08T05:44:01;12.45;;;3.28;;
5827;SDS011;42583;50.240;8.444;2023-10-08T05:59:19;11.25;;;3.60;;
5827;SDS011;42583;50.240;8.444;2023-10-08T06:14:27;11.73;;;3.38;;
5827;SDS011;42583;50.240;8.444;2023-10-08T06:29:52;9.25;;;3.22;;
5827;SDS011;42583;50.240;8.444;2023-10-08T06:44:55;8.27;;;3.47;;
5827;SDS011;42583;50.240;8.444;2023-10-08T06:59:58;11.13;;;3.65;;
5827;SDS011;42583;50.240;8.444;2023-10-08T07:15:00;11.25;;;3.85;;
5827;SDS011;42583;50.240;8.444;2023-10-08T07:30:01;13.48;;;3.78;;
5827;SDS011;42583;50.240;8.444;2023-10-08T07:45:10;13.43;;;4.45;;
5827;SDS011;42583;50.240;8.444;2023-10-08T08:00:17;13.63;;;4.68;;
5827;SDS011;42583;50.240;8.444;2023-10-08T08:15:30;15.50;;;4.57;;
5827;SDS011;42583;50.240;8.444;2023-10-08T08:30:34;11.43;;;3.97;;
5827;SDS011;42583;50.240;8.444;2023-10-08T08:45:36;11.02;;;3.97;;
5827;SDS011;42583;50.240;8.444;2023-10-08T09:00:40;13.43;;;4.07;;
5827;SDS011;42583;50.240;8.444;2023-10-08T09:15:41;14.05;;;4.82;;
5827;SDS011;42583;50.240;8.444;2023-10-08T09:30:43;12.88;;;4.65;;
5827;SDS011;42583;50.240;8.444;2023-10-08T09:45:51;16.70;;;4.50;;
5827;SDS011;42583;50.240;8.444;2023-10-08T10:00:59;12.40;;;4.80;;
5827;SDS011;42583;50.240;8.444;2023-10-08T10:16:00;15.20;;;5.38;;
5827;SDS011;42583;50.240;8.444;2023-10-08T10:31:00;13.65;;;4.90;;
5827;SDS011;42583;50.240;8.444;2023-10-08T10:46:03;14.63;;;5.20;;
5827;SDS011;42583;50.240;8.444;2023-10-08T11:01:25;14.30;;;4.72;;
5827;SDS011;42583;50.240;8.444;2023-10-08T11:16:29;13.63;;;5.13;;
5827;SDS011;42583;50.240;8.444;2023-10-08T11:31:32;13.82;;;4.50;;
5827;SDS011;42583;50.240;8.444;2023-10-08T11:46:35;11.27;;;4.57;;
5827;SDS011;42583;50.240;8.444;2023-10-08T12:01:39;11.57;;;4.32;;
5827;SDS011;42583;50.240;8.444;2023-10-08T12:16:42;13.57;;;4.38;;
5827;SDS011;42583;50.240;8.444;2023-10-08T12:31:45;13.93;;;4.22;;
5827;SDS011;42583;50.240;8.444;2023-10-08T12:46:47;12.93;;;4.57;;
5827;SDS011;42583;50.240;8.444;2023-10-08T13:01:49;15.57;;;4.60;;
5827;SDS011;42583;50.240;8.444;2023-10-08T13:16:54;12.93;;;4.53;;
5827;SDS011;42583;50.240;8.444;2023-10-08T13:31:55;20.73;;;5.15;;
5827;SDS011;42583;50.240;8.444;2023-10-08T13:46:57;14.43;;;5.03;;
5827;SDS011;42583;50.240;8.444;2023-10-08T14:02:00;16.60;;;4.78;;
5827;SDS011;42583;50.240;8.444;2023-10-08T14:17:02;11.00;;;4.43;;
5827;SDS011;42583;50.240;8.444;2023-10-08T14:32:05;16.83;;;4.65;;
5827;SDS011;42583;50.240;8.444;2023-10-08T14:47:08;14.80;;;4.78;;
5827;SDS011;42583;50.240;8.444;2023-10-08T15:02:09;16.90;;;4.25;;
5827;SDS011;42583;50.240;8.444;2023-10-08T15:17:10;11.48;;;4.45;;
5827;SDS011;42583;50.240;8.444;2023-10-08T15:32:13;15.20;;;4.80;;
5827;SDS011;42583;50.240;8.444;2023-10-08T15:47:13;15.20;;;4.47;;
5827;SDS011;42583;50.240;8.444;2023-10-08T16:02:14;14.05;;;4.45;;
5827;SDS011;42583;50.240;8.444;2023-10-08T16:17:15;12.02;;;4.28;;
5827;SDS011;42583;50.240;8.444;2023-10-08T16:32:16;13.55;;;4.57;;
5827;SDS011;42583;50.240;8.444;2023-10-08T16:47:16;12.52;;;4.57;;
5827;SDS011;42583;50.240;8.444;2023-10-08T17:02:18;10.23;;;4.43;;
5827;SDS011;42583;50.240;8.444;2023-10-08T17:17:18;12.52;;;4.32;;
5827;SDS011;42583;50.240;8.444;2023-10-08T17:32:19;14.65;;;4.32;;
5827;SDS011;42583;50.240;8.444;2023-10-08T17:47:21;10.95;;;4.03;;
5827;SDS011;42583;50.240;8.444;2023-10-08T18:02:23;15.60;;;4.60;;
5827;SDS011;42583;50.240;8.444;2023-10-08T18:17:26;13.18;;;4.18;;
5827;SDS011;42583;50.240;8.444;2023-10-08T18:32:27;13.80;;;3.97;;
5827;SDS011;42583;50.240;8.444;2023-10-08T18:47:29;14.23;;;4.25;;
5827;SDS011;42583;50.240;8.444;2023-10-08T19:02:33;13.40;;;4.53;;
5827;SDS011;42583;50.240;8.444;2023-10-08T19:17:33;15.85;;;4.55;;
5827;SDS011;42583;50.240;8.444;2023-10-08T19:32:34;15.20;;;4.70;;
5827;SDS011;42583;50.240;8.444;2023-10-08T19:47:34;14.45;;;4.78;;
5827;SDS011;42583;50.240;8.444;2023-10-08T20:02:35;13.98;;;4.45;;
5827;SDS011;42583;50.240;8.444;2023-10-08T20:17:36;15.23;;;4.05;;
5827;SDS011;42583;50.240;8.444;2023-10-08T20:32:44;13.25;;;4.13;;
5827;SDS011;42583;50.240;8.444;2023-10-08T20:47:44;11.23;;;4.03;;
5827;SDS011;42583;50.240;8.444;2023-10-08T21:02:49;12.30;;;4.60;;
5827;SDS011;42583;50.240;8.444;2023-10-08T21:17:51;18.60;;;4.60;;
5827;SDS011;42583;50.240;8.444;2023-10-08T21:32:54;11.30;;;4.32;;
5827;SDS011;42583;50.240;8.444;2023-10-08T21:47:59;13.65;;;4.18;;
5827;SDS011;42583;50.240;8.444;2023-10-08T22:03:00;11.02;;;4.00;;
5827;SDS011;42583;50.240;8.444;2023-10-08T22:18:01;14.90;;;4.60;;
5827;SDS011;42583;50.240;8.444;2023-10-08T22:33:02;13.13;;;4.17;;
5827;SDS011;42583;50.240;8.444;2023-10-08T22:48:05;9.63;;;3.47;;
5827;SDS011;42583;50.240;8.444;2023-10-08T23:03:06;12.10;;;3.67;;
5827;SDS011;42583;50.240;8.444;2023-10-08T23:18:07;11.10;;;3.97;;
5827;SDS011;42583;50.240;8.444;2023-10-08T23:33:08;11.98;;;3.50;;
5827;SDS011;42583;50.240;8.444;2023-10-08T23:48:09;10.35;;;4.15;;
